createdAt,value
2018-10-17T00:02:06.083Z,15.70
2018-10-17T00:04:35.387Z,15.70
2018-10-17T00:07:05.146Z,15.60
2018-10-17T00:09:34.678Z,15.50
2018-10-17T00:12:03.961Z,15.50
2018-10-17T00:14:33.348Z,15.40
2018-10-17T00:17:02.695Z,15.40
2018-10-17T00:19:31.929Z,15.40
2018-10-17T00:22:01.265Z,15.40
2018-10-17T00:24:30.570Z,15.40
2018-10-17T00:26:59.878Z,15.30
2018-10-17T00:29:29.185Z,15.30
2018-10-17T00:31:58.747Z,15.20
2018-10-17T00:34:28.028Z,15.20
2018-10-17T00:36:57.365Z,15.20
2018-10-17T00:39:26.607Z,15.10
2018-10-17T00:41:55.869Z,15.10
2018-10-17T00:44:25.285Z,15.10
2018-10-17T00:46:54.639Z,15.10
2018-10-17T00:49:23.983Z,15.10
2018-10-17T00:51:53.251Z,15.00
2018-10-17T00:54:22.564Z,15.00
2018-10-17T00:56:51.903Z,15.00
2018-10-17T00:59:21.187Z,14.90
2018-10-17T01:01:50.465Z,14.90
2018-10-17T01:04:19.716Z,14.90
2018-10-17T01:06:48.990Z,14.90
2018-10-17T01:09:18.338Z,14.90
2018-10-17T01:11:47.599Z,15.00
2018-10-17T01:14:17.017Z,14.90
2018-10-17T01:16:46.386Z,14.90
2018-10-17T01:19:15.675Z,15.00
2018-10-17T01:21:45.013Z,15.00
2018-10-17T01:24:14.379Z,14.90
2018-10-17T01:26:43.633Z,14.90
2018-10-17T01:29:12.980Z,14.90
2018-10-17T01:31:42.205Z,14.90
2018-10-17T01:34:12.265Z,14.90
2018-10-17T01:36:41.574Z,14.90
2018-10-17T01:39:11.615Z,14.90
2018-10-17T01:41:41.082Z,14.80
2018-10-17T01:44:10.372Z,14.80
2018-10-17T01:46:39.679Z,14.80
2018-10-17T01:49:09.039Z,14.70
2018-10-17T01:51:38.353Z,14.70
2018-10-17T01:54:07.682Z,14.70
2018-10-17T01:56:37.154Z,14.70
2018-10-17T01:59:06.959Z,14.70
2018-10-17T02:01:36.263Z,14.60
2018-10-17T02:04:05.744Z,14.60
2018-10-17T02:06:35.115Z,14.60
2018-10-17T02:09:06.311Z,14.60
2018-10-17T02:11:35.650Z,14.60
2018-10-17T02:14:05.425Z,14.60
2018-10-17T02:16:34.667Z,14.60
2018-10-17T02:19:04.092Z,14.60
2018-10-17T02:21:33.354Z,14.60
2018-10-17T02:24:02.722Z,14.60
2018-10-17T02:26:32.044Z,14.60
2018-10-17T02:29:01.423Z,14.60
2018-10-17T02:31:30.647Z,14.50
2018-10-17T02:33:59.937Z,14.40
2018-10-17T02:36:29.259Z,14.30
2018-10-17T02:38:58.644Z,14.20
2018-10-17T02:41:28.029Z,14.20
2018-10-17T02:43:57.296Z,14.20
2018-10-17T02:46:26.563Z,14.10
2018-10-17T02:48:55.878Z,14.10
2018-10-17T02:51:25.151Z,14.10
2018-10-17T02:53:55.201Z,14.10
2018-10-17T02:56:24.505Z,14.00
2018-10-17T02:58:53.867Z,14.00
2018-10-17T03:01:23.050Z,14.00
2018-10-17T03:03:52.300Z,14.00
2018-10-17T03:06:21.601Z,13.90
2018-10-17T03:08:51.747Z,13.90
2018-10-17T03:11:21.198Z,13.90
2018-10-17T03:13:50.768Z,13.90
2018-10-17T03:16:20.193Z,13.80
2018-10-17T03:18:49.511Z,13.80
2018-10-17T03:21:18.769Z,13.80
2018-10-17T03:23:48.841Z,13.80
2018-10-17T03:26:18.107Z,13.70
2018-10-17T03:28:47.397Z,13.70
2018-10-17T03:31:16.860Z,13.70
2018-10-17T03:33:46.064Z,13.60
2018-10-17T03:36:15.900Z,13.60
2018-10-17T03:38:45.250Z,13.50
2018-10-17T03:41:14.633Z,13.50
2018-10-17T03:43:43.892Z,13.50
2018-10-17T03:46:13.270Z,13.50
2018-10-17T03:48:42.699Z,13.40
2018-10-17T03:51:11.995Z,13.40
2018-10-17T03:53:41.352Z,13.40
2018-10-17T03:56:11.401Z,13.40
2018-10-17T03:58:40.745Z,13.30
2018-10-17T04:01:10.147Z,13.30
2018-10-17T04:03:39.390Z,13.30
2018-10-17T04:06:08.673Z,13.30
2018-10-17T04:08:37.955Z,13.20
2018-10-17T04:11:07.526Z,13.20
2018-10-17T04:13:36.768Z,13.20
2018-10-17T04:16:06.047Z,13.10
2018-10-17T04:18:35.303Z,13.10
2018-10-17T04:21:04.823Z,13.10
2018-10-17T04:23:34.089Z,13.10
2018-10-17T04:26:03.431Z,13.00
2018-10-17T04:28:32.692Z,13.00
2018-10-17T04:31:02.021Z,13.00
2018-10-17T04:33:31.265Z,13.00
2018-10-17T04:36:00.555Z,13.00
2018-10-17T04:38:29.896Z,13.00
2018-10-17T04:40:59.153Z,12.90
2018-10-17T04:43:29.088Z,12.90
2018-10-17T04:45:58.335Z,12.90
2018-10-17T04:48:27.706Z,12.90
2018-10-17T04:50:57.007Z,12.90
2018-10-17T04:53:27.755Z,13.00
2018-10-17T04:55:57.029Z,13.00
2018-10-17T04:58:26.292Z,12.90
2018-10-17T05:00:55.665Z,12.90
2018-10-17T05:03:24.887Z,12.80
2018-10-17T05:05:54.201Z,12.90
2018-10-17T05:08:23.484Z,12.90
2018-10-17T05:10:52.822Z,12.90
2018-10-17T05:13:22.107Z,12.90
2018-10-17T05:15:51.393Z,12.90
2018-10-17T05:18:20.681Z,12.90
2018-10-17T05:20:49.987Z,12.90
2018-10-17T05:23:20.649Z,12.90
2018-10-17T05:25:49.916Z,12.90
2018-10-17T05:28:19.257Z,12.90
2018-10-17T05:30:48.570Z,12.90
2018-10-17T05:33:17.811Z,12.90
2018-10-17T05:35:47.409Z,12.90
2018-10-17T05:38:16.664Z,13.00
2018-10-17T05:40:45.949Z,13.00
2018-10-17T05:43:15.299Z,12.90
2018-10-17T05:45:45.060Z,12.90
2018-10-17T05:48:14.383Z,12.90
2018-10-17T05:50:43.994Z,12.80
2018-10-17T05:53:13.314Z,12.70
2018-10-17T05:55:42.765Z,12.70
2018-10-17T05:58:12.041Z,12.60
2018-10-17T06:00:41.395Z,12.50
2018-10-17T06:03:10.733Z,12.50
2018-10-17T06:05:40.026Z,12.40
2018-10-17T06:08:09.288Z,12.40
2018-10-17T06:10:38.555Z,12.30
2018-10-17T06:13:07.933Z,12.40
2018-10-17T06:15:37.326Z,12.40
2018-10-17T06:18:06.797Z,12.30
2018-10-17T06:20:36.192Z,12.40
2018-10-17T06:23:05.564Z,12.40
2018-10-17T06:25:35.040Z,12.30
2018-10-17T06:28:04.588Z,12.30
2018-10-17T06:30:33.834Z,12.30
2018-10-17T06:33:03.665Z,12.20
2018-10-17T06:35:32.938Z,12.20
2018-10-17T06:38:02.215Z,12.10
2018-10-17T06:40:32.196Z,12.10
2018-10-17T06:43:01.584Z,12.20
2018-10-17T06:45:30.809Z,12.30
2018-10-17T06:48:00.088Z,12.40
2018-10-17T06:50:30.042Z,12.40
2018-10-17T06:52:59.374Z,12.40
2018-10-17T06:55:28.584Z,12.40
2018-10-17T06:57:57.928Z,12.50
2018-10-17T07:00:27.289Z,12.50
2018-10-17T07:02:56.765Z,12.50
2018-10-17T07:05:26.091Z,12.60
2018-10-17T07:07:56.081Z,12.70
2018-10-17T07:10:25.590Z,12.90
2018-10-17T07:12:54.873Z,13.00
2018-10-17T07:15:24.272Z,13.10
2018-10-17T07:17:53.661Z,13.20
2018-10-17T07:20:23.581Z,13.20
2018-10-17T07:22:52.929Z,13.30
2018-10-17T07:25:22.148Z,13.40
2018-10-17T07:27:51.565Z,13.50
2018-10-17T07:30:21.076Z,13.60
2018-10-17T07:32:50.427Z,13.60
2018-10-17T07:35:19.807Z,13.70
2018-10-17T07:37:49.074Z,13.90
2018-10-17T07:40:18.348Z,13.90
2018-10-17T07:42:47.602Z,14.00
2018-10-17T07:45:17.665Z,14.10
2018-10-17T07:47:46.912Z,14.20
2018-10-17T07:50:16.208Z,14.30
2018-10-17T07:52:45.491Z,14.40
2018-10-17T07:55:14.822Z,14.40
2018-10-17T07:57:44.137Z,14.50
2018-10-17T08:00:14.409Z,14.80
2018-10-17T08:02:43.667Z,15.00
2018-10-17T08:05:13.292Z,15.20
2018-10-17T08:07:42.650Z,15.50
2018-10-17T08:10:12.057Z,16.00
2018-10-17T08:12:41.418Z,16.40
2018-10-17T08:15:10.898Z,16.90
2018-10-17T08:17:40.202Z,17.60
2018-10-17T08:20:11.071Z,18.10
2018-10-17T08:22:40.708Z,18.70
2018-10-17T08:25:12.125Z,19.30
2018-10-17T08:27:42.135Z,20.10
2018-10-17T08:30:12.018Z,20.80
2018-10-17T08:32:41.641Z,21.00
2018-10-17T08:35:10.907Z,21.20
2018-10-17T08:37:40.777Z,21.30
2018-10-17T08:40:09.545Z,21.30
2018-10-17T08:42:38.867Z,21.30
2018-10-17T08:45:09.092Z,21.20
2018-10-17T08:47:38.347Z,21.30
2018-10-17T08:50:07.718Z,21.40
2018-10-17T08:52:37.057Z,21.60
2018-10-17T08:55:06.706Z,21.40
2018-10-17T08:57:36.006Z,21.30
2018-10-17T09:00:06.401Z,21.30
2018-10-17T09:02:35.735Z,21.00
2018-10-17T09:05:05.569Z,20.60
2018-10-17T09:07:34.853Z,20.40
2018-10-17T09:10:04.216Z,20.00
2018-10-17T09:12:33.469Z,19.80
2018-10-17T09:15:02.788Z,19.70
2018-10-17T09:17:32.078Z,19.40
2018-10-17T09:23:37.138Z,19.40
2018-10-17T09:26:06.398Z,19.60
2018-10-17T09:28:35.771Z,19.70
2018-10-17T09:31:05.165Z,19.90
2018-10-17T09:33:34.726Z,19.90
2018-10-17T09:36:04.253Z,20.00
2018-10-17T09:38:33.480Z,20.20
2018-10-17T09:41:02.795Z,20.60
2018-10-17T09:43:32.114Z,21.40
2018-10-17T09:46:01.504Z,22.10
2018-10-17T09:48:31.593Z,22.50
2018-10-17T09:51:00.894Z,22.90
2018-10-17T09:53:30.308Z,23.00
2018-10-17T09:55:59.781Z,23.40
2018-10-17T09:58:29.906Z,23.20
2018-10-17T10:01:04.352Z,23.50
2018-10-17T10:03:33.671Z,24.10
2018-10-17T10:06:03.043Z,24.50
2018-10-17T10:08:32.317Z,24.60
2018-10-17T10:11:01.812Z,24.80
2018-10-17T10:13:31.252Z,24.70
2018-10-17T10:16:00.569Z,24.70
2018-10-17T10:18:29.852Z,24.80
2018-10-17T10:20:59.212Z,24.80
2018-10-17T10:23:28.993Z,24.80
2018-10-17T10:25:58.364Z,25.00
2018-10-17T10:28:27.815Z,25.00
2018-10-17T10:30:57.085Z,25.00
2018-10-17T10:33:26.519Z,25.20
2018-10-17T10:35:55.871Z,25.40
2018-10-17T10:38:25.194Z,25.80
2018-10-17T10:40:54.597Z,26.10
2018-10-17T10:43:24.261Z,25.70
2018-10-17T10:45:53.578Z,25.70
2018-10-17T10:48:22.951Z,25.90
2018-10-17T10:50:52.249Z,25.80
2018-10-17T10:53:21.537Z,26.00
2018-10-17T10:55:50.931Z,26.20
2018-10-17T10:58:20.447Z,26.30
2018-10-17T11:00:49.645Z,26.80
2018-10-17T11:03:18.973Z,26.90
2018-10-17T11:05:48.492Z,26.80
2018-10-17T11:08:18.320Z,26.90
2018-10-17T11:10:47.586Z,27.30
2018-10-17T11:13:16.898Z,26.90
2018-10-17T11:15:46.304Z,26.40
2018-10-17T11:18:15.693Z,26.70
2018-10-17T11:20:45.857Z,26.40
2018-10-17T11:23:15.303Z,26.50
2018-10-17T11:25:45.634Z,26.60
2018-10-17T11:28:14.981Z,26.70
2018-10-17T11:30:44.393Z,27.00
2018-10-17T11:33:13.832Z,27.40
2018-10-17T11:35:43.094Z,27.60
2018-10-17T11:38:12.397Z,27.20
2018-10-17T11:40:41.953Z,26.80
2018-10-17T11:43:11.156Z,26.20
2018-10-17T11:45:40.469Z,26.30
2018-10-17T11:48:09.797Z,25.80
2018-10-17T11:50:39.261Z,25.70
2018-10-17T11:53:08.574Z,25.40
2018-10-17T11:55:37.948Z,25.40
2018-10-17T11:58:07.335Z,25.30
2018-10-17T12:00:36.635Z,25.50
2018-10-17T12:03:06.035Z,25.90
2018-10-17T12:05:35.683Z,26.40
2018-10-17T12:08:06.318Z,26.50
2018-10-17T12:10:35.662Z,26.00
2018-10-17T12:13:11.501Z,25.80
2018-10-17T12:15:42.746Z,25.70
2018-10-17T12:18:12.630Z,25.80
2018-10-17T12:20:41.933Z,25.90
2018-10-17T12:23:11.430Z,25.50
2018-10-17T12:25:41.562Z,25.00
2018-10-17T12:28:11.059Z,24.60
2018-10-17T12:30:40.556Z,24.30
2018-10-17T12:33:09.907Z,24.20
2018-10-17T12:35:39.329Z,24.60
2018-10-17T12:38:08.667Z,24.60
2018-10-17T12:40:38.184Z,23.90
2018-10-17T12:43:07.407Z,23.20
2018-10-17T12:45:36.840Z,22.40
2018-10-17T12:48:06.405Z,21.70
2018-10-17T12:50:35.753Z,21.30
2018-10-17T12:53:05.439Z,21.00
2018-10-17T12:55:34.851Z,21.20
2018-10-17T12:58:05.154Z,21.90
2018-10-17T13:00:34.530Z,22.60
2018-10-17T13:03:04.028Z,22.60
2018-10-17T13:05:33.425Z,22.20
2018-10-17T13:08:03.160Z,21.40
2018-10-17T13:10:32.471Z,21.30
2018-10-17T13:13:01.900Z,20.80
2018-10-17T13:15:31.906Z,20.50
2018-10-17T13:18:01.275Z,20.60
2018-10-17T13:20:30.737Z,20.90
2018-10-17T13:23:00.071Z,21.60
2018-10-17T13:25:30.243Z,21.30
2018-10-17T13:27:59.686Z,21.00
2018-10-17T13:30:29.186Z,20.80
2018-10-17T13:32:58.525Z,20.70
2018-10-17T13:35:28.504Z,20.80
2018-10-17T13:37:59.601Z,20.80
2018-10-17T13:40:29.597Z,20.70
2018-10-17T13:42:58.996Z,20.50
2018-10-17T13:45:28.388Z,20.00
2018-10-17T13:47:58.915Z,19.70
2018-10-17T13:50:28.340Z,19.70
2018-10-17T13:52:57.676Z,19.70
2018-10-17T13:55:27.363Z,19.30
2018-10-17T13:57:56.886Z,19.30
2018-10-17T14:00:26.166Z,19.20
2018-10-17T14:02:56.168Z,19.10
2018-10-17T14:05:25.534Z,19.20
2018-10-17T14:07:54.874Z,19.30
2018-10-17T14:10:24.165Z,19.20
2018-10-17T14:12:53.602Z,19.40
2018-10-17T14:15:22.933Z,19.50
2018-10-17T14:17:52.254Z,19.50
2018-10-17T14:20:21.550Z,19.20
2018-10-17T14:22:50.877Z,18.90
2018-10-17T14:25:20.294Z,18.80
2018-10-17T14:27:49.854Z,18.60
2018-10-17T14:30:19.312Z,18.50
2018-10-17T14:32:48.545Z,18.40
2018-10-17T14:35:17.880Z,18.30
2018-10-17T14:37:47.282Z,18.20
2018-10-17T14:40:16.721Z,18.20
2018-10-17T14:42:46.044Z,18.30
2018-10-17T14:45:15.500Z,18.30
2018-10-17T14:47:44.816Z,18.20
2018-10-17T14:50:14.170Z,18.30
2018-10-17T14:52:43.492Z,18.30
2018-10-17T14:55:12.952Z,18.30
2018-10-17T14:57:43.857Z,18.40
2018-10-17T15:00:15.041Z,18.50
2018-10-17T15:02:44.676Z,18.60
2018-10-17T15:05:14.103Z,18.50
2018-10-17T15:07:43.896Z,18.50
2018-10-17T15:10:13.278Z,18.40
2018-10-17T15:12:42.547Z,18.20
2018-10-17T15:15:12.947Z,18.10
2018-10-17T15:17:42.337Z,18.00
2018-10-17T15:20:11.647Z,18.00
2018-10-17T15:22:40.953Z,18.00
2018-10-17T15:25:10.361Z,18.00
2018-10-17T15:27:39.771Z,18.10
2018-10-17T15:30:09.154Z,18.10
2018-10-17T15:32:38.645Z,18.10
2018-10-17T15:35:08.442Z,18.00
2018-10-17T15:37:37.809Z,17.70
2018-10-17T15:40:07.200Z,17.60
2018-10-17T15:42:36.850Z,17.50
2018-10-17T15:45:06.826Z,17.20
2018-10-17T15:47:36.259Z,17.10
2018-10-17T15:50:05.669Z,17.00
2018-10-17T15:52:34.976Z,16.90
2018-10-17T15:55:04.461Z,16.80
2018-10-17T15:57:33.831Z,16.80
2018-10-17T16:00:03.292Z,16.70
2018-10-17T16:02:32.713Z,16.60
2018-10-17T16:05:02.061Z,16.60
2018-10-17T16:07:31.360Z,16.50
2018-10-17T16:10:00.755Z,16.50
2018-10-17T16:12:30.065Z,16.50
2018-10-17T16:14:59.447Z,16.40
2018-10-17T16:17:28.822Z,16.40
2018-10-17T16:19:58.168Z,16.40
2018-10-17T16:22:27.506Z,16.30
2018-10-17T16:24:56.821Z,16.30
2018-10-17T16:27:26.189Z,16.20
2018-10-17T16:29:55.952Z,16.20
2018-10-17T16:32:25.343Z,16.10
2018-10-17T16:34:56.861Z,16.10
2018-10-17T16:37:26.753Z,16.00
2018-10-17T16:39:56.977Z,15.90
2018-10-17T16:42:26.371Z,15.90
2018-10-17T16:44:55.840Z,15.90
2018-10-17T16:47:25.210Z,15.90
2018-10-17T16:49:54.727Z,15.80
2018-10-17T16:52:25.258Z,15.80
2018-10-17T16:54:54.693Z,15.80
2018-10-17T16:57:24.047Z,15.80
2018-10-17T16:59:53.422Z,15.80
2018-10-17T17:02:22.856Z,15.80
2018-10-17T17:04:52.275Z,15.70
2018-10-17T17:07:21.636Z,15.70
2018-10-17T17:09:50.989Z,15.70
2018-10-17T17:12:20.343Z,15.70
2018-10-17T17:14:50.885Z,15.60
2018-10-17T17:17:20.290Z,15.50
2018-10-17T17:19:49.697Z,15.40
2018-10-17T17:22:19.010Z,15.30
2018-10-17T17:24:48.359Z,15.20
2018-10-17T17:27:19.044Z,15.10
2018-10-17T17:29:48.624Z,14.90
2018-10-17T17:32:17.992Z,14.70
2018-10-17T17:34:47.628Z,14.60
2018-10-17T17:37:16.969Z,14.50
2018-10-17T17:39:46.485Z,14.40
2018-10-17T17:42:15.790Z,14.30
2018-10-17T17:44:45.185Z,14.20
2018-10-17T17:47:14.533Z,14.00
2018-10-17T17:49:43.891Z,14.00
2018-10-17T17:52:13.276Z,13.90
2018-10-17T17:54:42.711Z,13.80
2018-10-17T17:57:12.135Z,13.70
2018-10-17T17:59:41.510Z,13.70
2018-10-17T18:02:10.982Z,13.60
2018-10-17T18:04:40.434Z,13.50
2018-10-17T18:07:09.770Z,13.50
2018-10-17T18:09:39.162Z,13.40
2018-10-17T18:12:08.521Z,13.30
2018-10-17T18:14:37.985Z,13.20
2018-10-17T18:17:07.336Z,13.10
2018-10-17T18:19:36.968Z,13.00
2018-10-17T18:22:06.468Z,12.90
2018-10-17T18:24:35.934Z,12.90
2018-10-17T18:27:05.919Z,12.80
2018-10-17T18:29:35.546Z,12.80
2018-10-17T18:32:05.285Z,12.70
2018-10-17T18:34:34.589Z,12.70
2018-10-17T18:37:03.959Z,12.60
2018-10-17T18:39:33.353Z,12.50
2018-10-17T18:42:02.965Z,12.40
2018-10-17T18:44:32.272Z,12.40
2018-10-17T18:47:01.771Z,12.40
2018-10-17T18:49:31.220Z,12.30
2018-10-17T18:52:01.809Z,12.30
2018-10-17T18:54:31.174Z,12.20
2018-10-17T18:57:01.295Z,12.20
2018-10-17T18:59:30.609Z,12.20
2018-10-17T19:02:01.029Z,12.10
2018-10-17T19:04:30.458Z,12.00
2018-10-17T19:06:59.978Z,12.00
2018-10-17T19:09:29.450Z,12.00
2018-10-17T19:11:59.619Z,11.90
2018-10-17T19:14:29.178Z,11.80
2018-10-17T19:16:59.210Z,11.80
2018-10-17T19:19:29.039Z,11.80
2018-10-17T19:21:58.403Z,11.70
2018-10-17T19:24:27.859Z,11.70
2018-10-17T19:26:57.270Z,11.70
2018-10-17T19:29:26.736Z,11.60
2018-10-17T19:31:56.116Z,11.60
2018-10-17T19:34:25.534Z,11.60
2018-10-17T19:36:54.900Z,11.60
2018-10-17T19:39:24.230Z,11.50
2018-10-17T19:41:53.618Z,11.50
2018-10-17T19:44:23.138Z,11.50
2018-10-17T19:46:52.542Z,11.50
2018-10-17T19:49:22.664Z,11.50
2018-10-17T19:51:54.060Z,11.50
2018-10-17T19:54:23.432Z,11.50
2018-10-17T19:56:53.416Z,11.50
2018-10-17T19:59:23.454Z,11.40
2018-10-17T20:01:52.786Z,11.40
2018-10-17T20:04:22.156Z,11.40
2018-10-17T20:06:51.608Z,11.40
2018-10-17T20:09:21.006Z,11.40
2018-10-17T20:11:50.317Z,11.40
2018-10-17T20:14:19.776Z,11.30
2018-10-17T20:16:49.053Z,11.30
2018-10-17T20:19:18.340Z,11.30
2018-10-17T20:21:47.693Z,11.30
2018-10-17T20:24:17.037Z,11.40
2018-10-17T20:26:46.524Z,11.30
2018-10-17T20:29:15.925Z,11.40
2018-10-17T20:31:45.319Z,11.30
2018-10-17T20:34:16.152Z,11.30
2018-10-17T20:36:45.518Z,11.30
2018-10-17T20:39:15.427Z,11.30
2018-10-17T20:41:45.547Z,11.30
2018-10-17T20:44:15.044Z,11.30
2018-10-17T20:46:44.438Z,11.30
2018-10-17T20:49:13.993Z,11.30
2018-10-17T20:51:43.448Z,11.20
2018-10-17T20:54:13.196Z,11.30
2018-10-17T20:56:42.593Z,11.30
2018-10-17T20:59:11.968Z,11.20
2018-10-17T21:01:41.373Z,11.20
2018-10-17T21:04:11.364Z,11.20
2018-10-17T21:06:41.339Z,11.20
2018-10-17T21:09:14.153Z,11.20
2018-10-17T21:11:43.534Z,11.30
2018-10-17T21:14:12.936Z,11.30
2018-10-17T21:16:43.005Z,11.40
2018-10-17T21:19:12.351Z,11.40
2018-10-17T21:21:41.674Z,11.30
2018-10-17T21:24:11.073Z,11.30
2018-10-17T21:26:40.413Z,11.30
2018-10-17T21:29:09.776Z,11.30
2018-10-17T21:31:39.303Z,11.30
2018-10-17T21:34:08.622Z,11.30
2018-10-17T21:36:38.047Z,11.30
2018-10-17T21:39:12.098Z,11.40
2018-10-17T21:41:41.530Z,11.40
2018-10-17T21:44:11.700Z,11.40
2018-10-17T21:46:41.420Z,11.40
2018-10-17T21:49:10.906Z,11.30
2018-10-17T21:51:40.719Z,11.30
2018-10-17T21:54:10.056Z,11.30
2018-10-17T21:56:39.457Z,11.20
2018-10-17T21:59:09.588Z,11.20
2018-10-17T22:01:39.000Z,11.20
2018-10-17T22:04:08.347Z,11.20
2018-10-17T22:06:38.364Z,11.20
2018-10-17T22:09:09.904Z,11.10
2018-10-17T22:11:39.417Z,11.00
2018-10-17T22:14:08.856Z,11.00
2018-10-17T22:16:43.340Z,10.90
2018-10-17T22:19:12.950Z,10.90
2018-10-17T22:21:42.096Z,11.00
2018-10-17T22:24:11.486Z,10.90
2018-10-17T22:26:40.805Z,11.00
2018-10-17T22:29:10.162Z,10.90
2018-10-17T22:31:40.317Z,10.90
2018-10-17T22:34:09.818Z,10.90
2018-10-17T22:36:39.579Z,10.90
2018-10-17T22:39:11.968Z,11.00
2018-10-17T22:41:41.706Z,11.00
2018-10-17T22:44:11.162Z,11.00
2018-10-17T22:46:40.474Z,11.10
2018-10-17T22:49:10.618Z,11.20
2018-10-17T22:51:40.445Z,11.30
2018-10-17T22:54:09.844Z,11.30
2018-10-17T22:56:39.744Z,11.40
2018-10-17T22:59:09.081Z,11.50
2018-10-17T23:01:38.587Z,11.60
2018-10-17T23:04:08.540Z,11.70
2018-10-17T23:06:38.403Z,11.70
2018-10-17T23:09:11.126Z,11.70
2018-10-17T23:11:41.042Z,11.80
2018-10-17T23:14:10.834Z,11.90
2018-10-17T23:16:40.808Z,11.90
2018-10-17T23:19:11.036Z,12.00
2018-10-17T23:21:41.175Z,12.00
2018-10-17T23:24:10.442Z,12.10
2018-10-17T23:26:39.794Z,12.10
2018-10-17T23:29:09.149Z,12.20
2018-10-17T23:31:38.438Z,12.30
2018-10-17T23:34:07.824Z,12.30
2018-10-17T23:36:37.126Z,12.40
2018-10-17T23:39:08.520Z,12.40
2018-10-17T23:41:38.248Z,12.50
2018-10-17T23:44:07.803Z,12.50
2018-10-17T23:46:37.033Z,12.60
2018-10-17T23:49:06.417Z,12.60
2018-10-17T23:51:35.730Z,12.70
2018-10-17T23:54:05.074Z,12.70
2018-10-17T23:56:34.330Z,12.80
2018-10-17T23:59:03.665Z,12.80
